Time,TemperatureF,DewpointF,PressureIn,WindDirection,WindDirectionDegrees,WindSpeedMPH,WindSpeedGustMPH,Humidity,HourlyPrecipIn,Conditions,Clouds,dailyrainin,SolarRadiationWatts/m^2,SoftwareType,DateUTC
2013-06-07 00:00:00,66.5,44.0,31.28,NNE,27,0.0,2.0,45,0.00,,,0.00,0,weatherlink.com 1.10,2013-06-07 06:00:00,
2013-06-07 00:15:00,65.8,45.0,31.29,NNE,17,4.0,4.0,47,0.00,,,0.00,0,weatherlink.com 1.10,2013-06-07 06:15:00,
2013-06-07 00:30:00,64.6,45.0,31.29,North,360,0.0,3.0,49,0.00,,,0.00,0,weatherlink.com 1.10,2013-06-07 06:30:00,
2013-06-07 00:45:00,65.3,44.0,31.29,North,360,0.0,3.0,47,0.00,,,0.00,0,weatherlink.com 1.10,2013-06-07 06:45:00,
2013-06-07 01:00:00,64.9,44.0,31.29,NNE,26,1.0,5.0,47,0.00,,,0.00,0,weatherlink.com 1.10,2013-06-07 07:00:00,
2013-06-07 01:15:00,65.3,43.0,31.29,NE,41,0.0,5.0,45,0.00,,,0.00,0,weatherlink.com 1.10,2013-06-07 07:15:00,
2013-06-07 01:30:00,64.9,43.0,31.29,NE,41,0.0,0.0,46,0.00,,,0.00,0,weatherlink.com 1.10,2013-06-07 07:30:00,
2013-06-07 01:45:00,65.0,43.0,31.28,NE,41,0.0,2.0,45,0.00,,,0.00,0,weatherlink.com 1.10,2013-06-07 07:45:00,
2013-06-07 02:00:00,64.9,43.0,31.28,NE,41,1.0,2.0,46,0.00,,,0.00,0,weatherlink.com 1.10,2013-06-07 08:00:00,
2013-06-07 02:15:00,62.7,44.0,31.28,SSE,157,2.0,5.0,50,0.00,,,0.00,0,weatherlink.com 1.10,2013-06-07 08:15:00,
2013-06-07 02:30:00,61.8,44.0,31.28,SSE,151,7.0,8.0,53,0.00,,,0.00,0,weatherlink.com 1.10,2013-06-07 08:30:00,
2013-06-07 02:45:00,61.7,45.0,31.28,South,186,2.0,4.0,54,0.00,,,0.00,0,weatherlink.com 1.10,2013-06-07 08:45:00,
2013-06-07 03:00:00,60.6,44.0,31.28,SSE,157,3.0,5.0,55,0.00,,,0.00,0,weatherlink.com 1.10,2013-06-07 09:00:00,
2013-06-07 03:15:00,60.5,44.0,31.28,South,169,3.0,6.0,55,0.00,,,0.00,0,weatherlink.com 1.10,2013-06-07 09:15:00,
2013-06-07 03:30:00,60.5,44.0,31.28,South,169,1.0,2.0,55,0.00,,,0.00,0,weatherlink.com 1.10,2013-06-07 09:30:00,
2013-06-07 03:45:00,59.4,44.0,31.27,South,169,1.0,2.0,57,0.00,,,0.00,0,weatherlink.com 1.10,2013-06-07 09:45:00,
2013-06-07 04:00:00,59.9,44.0,31.28,SSW,211,1.0,4.0,56,0.00,,,0.00,0,weatherlink.com 1.10,2013-06-07 10:00:00,
2013-06-07 04:15:00,59.7,44.0,31.28,SSW,211,0.0,2.0,56,0.00,,,0.00,0,weatherlink.com 1.10,2013-06-07 10:15:00,
2013-06-07 04:30:00,59.2,43.0,31.29,SSW,201,0.0,1.0,56,0.00,,,0.00,0,weatherlink.com 1.10,2013-06-07 10:30:00,
2013-06-07 04:45:00,59.0,43.0,31.28,SSE,167,0.0,4.0,56,0.00,,,0.00,0,weatherlink.com 1.10,2013-06-07 10:45:00,
2013-06-07 05:00:00,59.5,43.0,31.29,WSW,254,0.0,4.0,55,0.00,,,0.00,0,weatherlink.com 1.10,2013-06-07 11:00:00,
2013-06-07 05:15:00,58.2,43.0,31.28,SSE,148,5.0,5.0,58,0.00,,,0.00,0,weatherlink.com 1.10,2013-06-07 11:15:00,
2013-06-07 05:30:00,57.9,43.0,31.29,SSE,150,2.0,4.0,58,0.00,,,0.00,0,weatherlink.com 1.10,2013-06-07 11:30:00,
2013-06-07 05:46:00,58.4,43.0,31.30,SSE,158,0.0,3.0,56,0.00,,,0.00,0,weatherlink.com 1.10,2013-06-07 11:46:00,
2013-06-07 06:01:00,58.8,43.0,31.29,SSE,158,2.0,4.0,56,0.00,,,0.00,7,weatherlink.com 1.10,2013-06-07 12:01:00,
2013-06-07 06:16:00,59.1,43.0,31.29,SSE,158,0.0,2.0,56,0.00,,,0.00,23,weatherlink.com 1.10,2013-06-07 12:16:00,
2013-06-07 06:31:00,59.2,43.0,31.29,SSE,158,0.0,0.0,55,0.00,,,0.00,37,weatherlink.com 1.10,2013-06-07 12:31:00,
2013-06-07 06:46:00,59.3,44.0,31.29,SSE,158,0.0,2.0,57,0.00,,,0.00,86,weatherlink.com 1.10,2013-06-07 12:46:00,
2013-06-07 07:01:00,58.7,45.0,31.30,SSE,158,0.0,1.0,60,0.00,,,0.00,84,weatherlink.com 1.10,2013-06-07 13:01:00,
2013-06-07 07:16:00,58.4,44.0,31.30,SSE,158,0.0,1.0,59,0.00,,,0.00,114,weatherlink.com 1.10,2013-06-07 13:16:00,
2013-06-07 07:31:00,59.1,47.0,31.29,NNW,339,0.0,4.0,64,0.00,,,0.00,144,weatherlink.com 1.10,2013-06-07 13:31:00,
2013-06-07 07:46:00,60.4,49.0,31.30,NW,323,1.0,3.0,66,0.00,,,0.00,327,weatherlink.com 1.10,2013-06-07 13:46:00,
2013-06-07 08:16:00,60.9,46.0,31.28,SSW,207,6.0,10.0,59,0.00,,,0.00,345,weatherlink.com 1.10,2013-06-07 14:16:00,
2013-06-07 08:31:00,60.4,46.0,31.29,South,185,5.0,7.0,59,0.00,,,0.00,292,weatherlink.com 1.10,2013-06-07 14:31:00,
2013-06-07 08:46:00,59.9,45.0,31.29,WSW,242,2.0,5.0,59,0.00,,,0.00,250,weatherlink.com 1.10,2013-06-07 14:46:00,
2013-06-07 09:01:00,60.7,47.0,31.29,South,173,1.0,3.0,62,0.00,,,0.00,482,weatherlink.com 1.10,2013-06-07 15:01:00,
2013-06-07 09:16:00,63.1,47.0,31.28,WSW,255,0.0,3.0,57,0.00,,,0.00,489,weatherlink.com 1.10,2013-06-07 15:16:00,
2013-06-07 09:31:00,63.8,48.0,31.28,SW,234,2.0,5.0,57,0.00,,,0.00,496,weatherlink.com 1.10,2013-06-07 15:31:00,
2013-06-07 09:46:00,64.4,50.0,31.28,South,180,2.0,7.0,59,0.00,,,0.00,545,weatherlink.com 1.10,2013-06-07 15:46:00,
2013-06-07 10:01:00,65.8,49.0,31.26,WSW,239,0.0,3.0,56,0.00,,,0.00,587,weatherlink.com 1.10,2013-06-07 16:01:00,
2013-06-07 10:16:00,65.1,49.0,31.25,SSE,168,6.0,9.0,56,0.00,,,0.00,712,weatherlink.com 1.10,2013-06-07 16:16:00,
2013-06-07 10:31:00,65.2,50.0,31.25,SW,225,8.0,8.0,58,0.00,,,0.00,547,weatherlink.com 1.10,2013-06-07 16:31:00,
2013-06-07 10:46:00,65.8,49.0,31.24,South,189,10.0,12.0,55,0.00,,,0.00,657,weatherlink.com 1.10,2013-06-07 16:46:00,
2013-06-07 11:01:00,68.0,52.0,31.23,SW,222,5.0,12.0,56,0.00,,,0.00,650,weatherlink.com 1.10,2013-06-07 17:01:00,
2013-06-07 11:16:00,69.1,48.0,31.23,South,189,9.0,11.0,48,0.00,,,0.00,679,weatherlink.com 1.10,2013-06-07 17:16:00,
2013-06-07 11:31:00,69.4,48.0,31.22,SW,233,8.0,12.0,46,0.00,,,0.00,621,weatherlink.com 1.10,2013-06-07 17:31:00,
2013-06-07 11:46:00,68.2,49.0,31.21,South,191,6.0,11.0,50,0.00,,,0.00,570,weatherlink.com 1.10,2013-06-07 17:46:00,
2013-06-07 12:01:00,68.1,48.0,31.21,South,186,8.0,12.0,49,0.00,,,0.00,394,weatherlink.com 1.10,2013-06-07 18:01:00,
2013-06-07 12:16:00,68.1,49.0,31.21,South,174,9.0,12.0,50,0.00,,,0.00,473,weatherlink.com 1.10,2013-06-07 18:16:00,
2013-06-07 12:31:00,68.2,48.0,31.21,South,182,6.0,12.0,48,0.00,,,0.00,301,weatherlink.com 1.10,2013-06-07 18:31:00,
2013-06-07 13:02:00,69.4,46.0,31.20,WSW,238,7.0,10.0,43,0.00,,,0.00,237,weatherlink.com 1.10,2013-06-07 19:02:00,
2013-06-07 13:17:00,69.5,48.0,31.20,WSW,242,5.0,9.0,46,0.00,,,0.00,330,weatherlink.com 1.10,2013-06-07 19:17:00,
2013-06-07 13:32:00,70.2,45.0,31.19,SW,215,2.0,7.0,41,0.00,,,0.00,320,weatherlink.com 1.10,2013-06-07 19:32:00,
2013-06-07 13:47:00,70.5,45.0,31.18,SW,221,7.0,13.0,40,0.00,,,0.00,313,weatherlink.com 1.10,2013-06-07 19:47:00,
2013-06-07 14:02:00,70.8,46.0,31.17,SW,236,1.0,17.0,42,0.00,,,0.00,332,weatherlink.com 1.10,2013-06-07 20:02:00,
2013-06-07 14:17:00,70.8,44.0,31.17,SW,219,3.0,9.0,38,0.00,,,0.00,274,weatherlink.com 1.10,2013-06-07 20:17:00,
2013-06-07 14:32:00,70.7,44.0,31.17,SW,229,5.0,9.0,39,0.00,,,0.00,176,weatherlink.com 1.10,2013-06-07 20:32:00,
2013-06-07 14:47:00,70.4,44.0,31.16,WSW,251,4.0,15.0,39,0.00,,,0.00,158,weatherlink.com 1.10,2013-06-07 20:47:00,
2013-06-07 15:02:00,70.6,45.0,31.16,West,260,3.0,10.0,40,0.00,,,0.00,179,weatherlink.com 1.10,2013-06-07 21:02:00,
2013-06-07 15:17:00,70.8,45.0,31.16,NW,306,0.0,12.0,40,0.00,,,0.00,329,weatherlink.com 1.10,2013-06-07 21:17:00,
2013-06-07 15:32:00,72.2,44.0,31.16,WSW,238,3.0,23.0,37,0.00,,,0.00,689,weatherlink.com 1.10,2013-06-07 21:32:00,
2013-06-07 16:02:00,71.0,45.0,31.15,WNW,288,7.0,19.0,40,0.00,,,0.00,287,weatherlink.com 1.10,2013-06-07 22:02:00,
2013-06-07 16:32:00,71.1,47.0,31.14,West,273,4.0,20.0,43,0.00,,,0.00,237,weatherlink.com 1.10,2013-06-07 22:32:00,
2013-06-07 16:47:00,71.3,48.0,31.14,NW,308,12.0,19.0,43,0.00,,,0.00,320,weatherlink.com 1.10,2013-06-07 22:47:00,
2013-06-07 17:02:00,72.4,47.0,31.14,NW,325,10.0,13.0,41,0.00,,,0.00,940,weatherlink.com 1.10,2013-06-07 23:02:00,
2013-06-07 17:17:00,74.3,46.0,31.15,West,281,7.0,16.0,37,0.00,,,0.00,877,weatherlink.com 1.10,2013-06-07 23:17:00,
2013-06-07 17:32:00,74.3,46.0,31.14,WNW,286,12.0,26.0,37,0.00,,,0.00,733,weatherlink.com 1.10,2013-06-07 23:32:00,
2013-06-07 18:02:00,73.5,46.0,31.14,WSW,252,13.0,20.0,38,0.00,,,0.00,612,weatherlink.com 1.10,2013-06-08 00:02:00,
2013-06-07 18:33:00,70.6,44.0,31.14,WSW,240,11.0,14.0,39,0.00,,,0.00,232,weatherlink.com 1.10,2013-06-08 00:33:00,
2013-06-07 18:47:00,71.0,46.0,31.15,NW,313,6.0,12.0,41,0.00,,,0.00,183,weatherlink.com 1.10,2013-06-08 00:47:00,
2013-06-07 19:02:00,70.3,45.0,31.15,WNW,287,7.0,11.0,41,0.00,,,0.00,163,weatherlink.com 1.10,2013-06-08 01:02:00,
2013-06-07 19:17:00,69.1,44.0,31.15,SW,224,9.0,14.0,41,0.00,,,0.00,118,weatherlink.com 1.10,2013-06-08 01:17:00,
2013-06-07 19:32:00,69.4,44.0,31.16,SW,229,5.0,20.0,40,0.00,,,0.00,318,weatherlink.com 1.10,2013-06-08 01:32:00,
2013-06-07 19:47:00,70.3,44.0,31.16,NW,308,12.0,16.0,39,0.00,,,0.00,278,weatherlink.com 1.10,2013-06-08 01:47:00,
2013-06-07 20:32:00,67.5,43.0,31.17,NW,317,5.0,17.0,42,0.00,,,0.00,113,weatherlink.com 1.10,2013-06-08 02:32:00,
2013-06-07 20:47:00,66.7,45.0,31.17,NW,322,6.0,15.0,45,0.00,,,0.00,63,weatherlink.com 1.10,2013-06-08 02:47:00,
2013-06-07 21:02:00,65.6,44.0,31.18,NW,315,6.0,12.0,45,0.00,,,0.00,23,weatherlink.com 1.10,2013-06-08 03:02:00,
2013-06-07 21:17:00,65.9,43.0,31.18,West,261,2.0,11.0,44,0.00,,,0.00,9,weatherlink.com 1.10,2013-06-08 03:17:00,
2013-06-07 21:32:00,65.2,43.0,31.18,SSW,210,4.0,16.0,45,0.00,,,0.00,0,weatherlink.com 1.10,2013-06-08 03:32:00,
2013-06-07 21:47:00,65.4,42.0,31.19,West,267,4.0,18.0,43,0.00,,,0.00,0,weatherlink.com 1.10,2013-06-08 03:47:00,
2013-06-07 22:02:00,65.0,41.0,31.20,SW,232,9.0,17.0,42,0.00,,,0.00,0,weatherlink.com 1.10,2013-06-08 04:02:00,
2013-06-07 22:17:00,64.3,42.0,31.21,North,351,0.0,10.0,45,0.00,,,0.00,0,weatherlink.com 1.10,2013-06-08 04:17:00,
2013-06-07 22:32:00,64.2,42.0,31.21,WNW,292,1.0,3.0,45,0.00,,,0.00,0,weatherlink.com 1.10,2013-06-08 04:32:00,
2013-06-07 22:47:00,63.3,42.0,31.22,NW,313,6.0,7.0,46,0.00,,,0.00,0,weatherlink.com 1.10,2013-06-08 04:47:00,
2013-06-07 23:02:00,63.2,42.0,31.23,NNW,336,3.0,5.0,46,0.00,,,0.00,0,weatherlink.com 1.10,2013-06-08 05:02:00,
2013-06-07 23:17:00,62.9,41.0,31.23,North,10,0.0,7.0,45,0.00,,,0.00,0,weatherlink.com 1.10,2013-06-08 05:17:00,
2013-06-07 23:32:00,62.3,41.0,31.23,North,349,0.0,3.0,46,0.00,,,0.00,0,weatherlink.com 1.10,2013-06-08 05:32:00,
2013-06-07 23:47:00,61.4,41.0,31.23,North,360,3.0,4.0,48,0.00,,,0.00,0,weatherlink.com 1.10,2013-06-08 05:47:00,